createdAt,value
2019-02-04T00:04:42.250Z,96.79
2019-02-04T00:24:56.197Z,318.63
2019-02-04T00:44:57.939Z,515.76
2019-02-04T01:04:57.545Z,324.88
2019-02-04T01:25:07.113Z,229.71
2019-02-04T01:45:16.610Z,171.32
2019-02-04T02:05:26.172Z,136.48
2019-02-04T02:25:40.214Z,171.16
2019-02-04T02:45:39.896Z,208.86
2019-02-04T03:05:49.449Z,202.92
2019-02-04T03:25:59.077Z,382.77
2019-02-04T03:46:10.892Z,131.40
2019-02-04T04:06:10.481Z,159.16
2019-02-04T04:26:19.968Z,76.37
2019-02-04T04:46:29.511Z,188.36
2019-02-04T05:06:41.232Z,166.50
2019-02-04T05:26:40.883Z,278.62
2019-02-04T05:46:52.034Z,100.28
2019-02-04T06:06:59.404Z,161.85
2019-02-04T06:27:10.351Z,122.11
2019-02-04T06:47:18.274Z,174.48
2019-02-04T07:07:28.003Z,70.13
2019-02-04T07:27:39.817Z,49.79
2019-02-04T07:47:39.425Z,24.75
2019-02-04T08:07:51.123Z,24.56
2019-02-04T08:27:50.620Z,38.50
2019-02-04T08:48:00.091Z,37.22
2019-02-04T09:08:11.871Z,62.87
2019-02-04T09:28:13.646Z,120.53
2019-02-04T10:08:20.576Z,77.07
2019-02-04T10:28:42.239Z,115.44
2019-02-04T10:48:26.072Z,97.03
2019-02-04T11:08:35.502Z,59.91
2019-02-04T11:48:47.711Z,72.25
2019-02-04T12:08:57.324Z,38.68
2019-02-04T12:29:06.834Z,38.07
2019-02-04T12:49:16.444Z,49.67
2019-02-04T13:09:25.912Z,31.55
2019-02-04T13:29:35.373Z,25.00
2019-02-04T13:49:44.770Z,14.09
2019-02-04T14:10:00.546Z,11.68
2019-02-04T14:30:02.853Z,7.11
2019-02-04T14:50:02.663Z,3.15
2019-02-04T15:10:12.101Z,2.86
2019-02-04T15:30:22.093Z,2.22
2019-02-04T15:50:31.735Z,2.04
2019-02-04T16:10:41.227Z,3.46
2019-02-04T16:30:50.744Z,2.47
2019-02-04T16:51:11.329Z,4.47
2019-02-04T17:11:09.407Z,3.52
2019-02-04T17:31:19.031Z,3.85
2019-02-04T17:51:28.596Z,6.79
2019-02-04T18:11:38.116Z,4.37
2019-02-04T18:31:47.640Z,5.98
2019-02-04T18:51:59.535Z,4.33
2019-02-04T19:11:59.396Z,6.13
2019-02-04T19:31:59.084Z,7.89
2019-02-04T19:52:08.766Z,9.90
2019-02-04T20:12:17.122Z,12.12
2019-02-04T20:32:28.884Z,13.40
2019-02-04T20:52:29.223Z,15.87
2019-02-04T21:12:28.847Z,17.28
2019-02-04T21:32:38.365Z,12.00
2019-02-04T21:52:47.933Z,13.40
2019-02-04T22:12:57.570Z,13.48
2019-02-04T22:33:07.163Z,11.02
2019-02-04T22:53:16.633Z,8.87
2019-02-04T23:13:28.360Z,11.25
2019-02-04T23:33:34.114Z,9.33
2019-02-04T23:53:36.983Z,8.76
